Dagsboro, Delaware
Current Conditions -  °F | °C
As of 9:54 AM on Monday 24 Nov 2014 (Local Time) from KGED Reporting Station
Overcast Overcast  
Wind Chill: 70°   Ceiling: 2000
Heat Index: 70°   Visibility: 10mi
Dew Point: 62°   Wind: 17mph
Humidity: 76%   Direction: 220°SW
Pressure: 29.74"   Gusts: 24mph
Location:  38.55°N, 75.25°W
Report Text: KGED 241454Z AUTO 22015G21KT 10SM BKN020 OVC026 21/17 A2974 RMK AO2 SLP071 T02110167 53003
Loading
Personal Weather Stations






























Interactive Weather Map New forecast layout! Learn more

10-Day Weather Forecast

Advertisements
Track Severe Weather on mobile